KSVN/SVN METAR and TAF weather

Enter ICAO airport designator
Station Type Date Time Source
KSVN METAR 2020/04/01 22:56 UTC NOAA

KSVN 012256Z AUTO 36010KT 10SM BKN055 18/05 A2986 RMK AO2 SLP115 T01830048 $


Station Type Date Time Source
KSVN Decoded METAR 2020/04/01 22:56 UTC NOAA

Hunter U. S. Army Airfield , GA, United States (KSVN) 32-01N 081-09W
Apr 01, 2020 - 06:56 PM EDT / 2020.04.01 2256 UTC
Wind: from the N (360 degrees) at 12 MPH (10 KT):0
Visibility: 10 mile(s):0
Sky conditions: mostly cloudy
Temperature: 64.9 F (18.3 C)
Dew Point: 40.6 F (4.8 C)
Relative Humidity: 40%
Pressure (altimeter): 29.86 in. Hg (1011 hPa)
ob: KSVN 012256Z AUTO 36010KT 10SM BKN055 18/05 A2986 RMK AO2 SLP115 T01830048
cycle: 23

Station Type Date Time Source
KSVN TAF 2020/04/01 20:09 UTC NOAA

TAF TAF KSVN 012000Z 0120/0302 33009KT 9999 BKN045 QNH2980INS
BECMG 0204/0205 VRB06KT 9999 SCT040 QNH3001INS TX18/0121Z TN12/0211Z

Example: see airport list